createdAt,value
2023-09-01T00:01:01.650Z,100967.06
2023-09-01T00:03:28.559Z,100965.38
2023-09-01T00:05:55.172Z,100971.69
2023-09-01T00:08:21.744Z,100968.72
2023-09-01T00:10:48.321Z,100965.38
2023-09-01T00:13:14.800Z,100965.38
2023-09-01T00:15:42.214Z,100970.63
2023-09-01T00:18:08.936Z,100965.16
2023-09-01T00:20:36.327Z,100971.28
2023-09-01T00:23:05.909Z,100971.28
2023-09-01T00:25:32.799Z,100972.13
2023-09-01T00:27:59.352Z,100970.00
2023-09-01T00:30:28.414Z,100966.22
2023-09-01T00:32:54.924Z,100961.56
2023-09-01T00:35:21.494Z,100958.00
2023-09-01T00:37:48.683Z,100968.28
2023-09-01T00:40:15.511Z,100964.53
2023-09-01T00:42:42.014Z,100973.59
2023-09-01T00:45:09.641Z,100964.72
2023-09-01T00:47:36.243Z,100971.47
2023-09-01T00:50:08.759Z,100978.63
2023-09-01T00:52:36.635Z,100975.88
2023-09-01T00:55:03.812Z,100971.47
2023-09-01T00:57:30.320Z,100971.25
2023-09-01T00:59:57.787Z,100971.47
2023-09-01T01:02:24.517Z,100971.88
2023-09-01T01:04:51.243Z,100979.41
2023-09-01T01:07:39.470Z,100979.41
2023-09-01T01:10:29.220Z,100979.00
2023-09-01T01:13:00.794Z,100977.28
2023-09-01T01:15:28.022Z,100972.88
2023-09-01T01:17:56.932Z,100975.63
2023-09-01T01:20:31.893Z,100973.72
2023-09-01T01:22:58.541Z,100976.91
2023-09-01T01:25:25.118Z,100975.84
2023-09-01T01:27:51.652Z,100978.56
2023-09-01T01:30:18.249Z,100985.31
2023-09-01T01:32:45.801Z,100982.59
2023-09-01T01:35:12.341Z,100977.28
2023-09-01T01:37:45.032Z,100984.47
2023-09-01T01:40:12.636Z,100995.22
2023-09-01T01:42:40.606Z,100990.13
2023-09-01T01:45:07.779Z,100990.34
2023-09-01T01:47:34.463Z,100984.66
2023-09-01T01:50:01.151Z,100985.28
2023-09-01T01:52:27.630Z,100990.97
2023-09-01T01:54:54.447Z,100991.41
2023-09-01T01:57:21.218Z,100987.16
2023-09-01T01:59:47.659Z,100989.25
2023-09-01T02:02:14.126Z,100989.69
2023-09-01T02:04:40.953Z,100989.28
2023-09-01T02:07:08.601Z,100991.81
2023-09-01T02:09:35.393Z,100980.25
2023-09-01T02:12:01.908Z,100980.25
2023-09-01T02:14:28.473Z,100978.75
2023-09-01T02:16:55.230Z,100980.63
2023-09-01T02:19:22.740Z,100982.13
2023-09-01T02:21:49.263Z,100981.94
2023-09-01T02:24:15.862Z,100985.94
2023-09-01T02:26:42.582Z,100989.53
2023-09-01T02:29:09.079Z,100987.84
2023-09-01T02:31:36.442Z,100984.25
2023-09-01T02:34:05.900Z,100994.16
2023-09-01T02:36:36.078Z,100998.56
2023-09-01T02:39:05.749Z,100991.41
2023-09-01T02:41:32.319Z,100990.97
2023-09-01T02:43:58.869Z,100992.69
2023-09-01T02:46:25.414Z,100999.84
2023-09-01T02:48:52.088Z,101005.94
2023-09-01T02:51:18.916Z,100992.25
2023-09-01T02:53:45.634Z,100997.94
2023-09-01T02:56:12.164Z,101001.53
2023-09-01T02:58:38.738Z,101005.94
2023-09-01T03:01:09.232Z,101001.53
2023-09-01T03:03:36.784Z,101000.47
2023-09-01T03:06:07.025Z,101000.47
2023-09-01T03:08:33.783Z,101003.03
2023-09-01T03:11:00.396Z,101001.13
2023-09-01T03:13:27.081Z,100996.50
2023-09-01T03:15:57.417Z,101002.81
2023-09-01T03:18:24.956Z,100995.66
2023-09-01T03:20:54.558Z,101003.22
2023-09-01T03:23:21.904Z,101002.59
2023-09-01T03:25:57.718Z,101002.59
2023-09-01T03:28:24.370Z,101001.53
2023-09-01T03:30:50.859Z,101005.09
2023-09-01T03:33:17.538Z,101006.16
2023-09-01T03:35:45.102Z,101005.31
2023-09-01T03:38:11.636Z,101012.25
2023-09-01T03:40:38.221Z,101017.06
2023-09-01T03:43:06.866Z,101016.22
2023-09-01T03:45:33.287Z,101014.53
2023-09-01T03:47:59.986Z,101013.25
2023-09-01T03:50:26.486Z,101014.09
2023-09-01T03:52:53.289Z,101008.00
2023-09-01T03:55:19.841Z,101009.84
2023-09-01T03:57:46.363Z,101006.88
2023-09-01T04:00:13.441Z,101004.38
2023-09-01T04:02:39.917Z,100996.78
2023-09-01T04:05:06.823Z,100990.28
2023-09-01T04:07:33.299Z,100989.84
2023-09-01T04:09:59.786Z,100989.84
2023-09-01T04:12:26.399Z,100988.16
2023-09-01T04:14:52.924Z,100990.22
2023-09-01T04:17:19.729Z,100987.50
2023-09-01T04:19:49.119Z,100991.91
2023-09-01T04:22:15.953Z,100995.94
2023-09-01T04:24:42.768Z,100985.44
2023-09-01T04:27:09.486Z,101002.94
2023-09-01T04:29:38.228Z,100998.34
2023-09-01T04:32:05.011Z,101004.44
2023-09-01T04:34:31.771Z,101006.34
2023-09-01T04:36:58.265Z,101012.66
2023-09-01T04:39:24.879Z,101002.75
2023-09-01T04:41:51.407Z,101019.81
2023-09-01T04:44:17.976Z,101023.59
2023-09-01T04:46:44.471Z,101017.06
2023-09-01T04:49:11.278Z,101024.44
2023-09-01T04:51:37.777Z,101036.03
2023-09-01T04:54:04.394Z,101032.25
2023-09-01T04:56:32.123Z,101032.25
2023-09-01T04:58:58.623Z,101025.94
2023-09-01T05:01:25.326Z,101035.00
2023-09-01T05:03:51.917Z,101036.03
2023-09-01T05:06:18.415Z,101036.22
2023-09-01T05:08:45.034Z,101042.97
2023-09-01T05:11:12.033Z,101041.06
2023-09-01T05:13:38.858Z,101036.44
2023-09-01T05:16:08.403Z,101041.06
2023-09-01T05:18:35.075Z,101035.38
2023-09-01T05:21:01.604Z,101038.78
2023-09-01T05:23:32.394Z,101033.94
2023-09-01T05:25:58.911Z,101042.81
2023-09-01T05:28:25.383Z,101044.69
2023-09-01T05:30:51.945Z,101046.56
2023-09-01T05:33:18.511Z,101044.28
2023-09-01T05:35:45.045Z,101048.69
2023-09-01T05:38:11.540Z,101051.25
2023-09-01T05:40:39.181Z,101053.16
2023-09-01T05:43:06.170Z,101045.56
2023-09-01T05:45:32.722Z,101043.66
2023-09-01T05:47:59.437Z,101051.69
2023-09-01T05:50:26.168Z,101050.66
2023-09-01T05:52:52.809Z,101047.69
2023-09-01T05:55:19.343Z,101050.03
2023-09-01T05:57:45.909Z,101054.66
2023-09-01T06:00:13.029Z,101061.81
2023-09-01T06:02:39.943Z,101065.84
2023-09-01T06:05:07.167Z,101069.25
2023-09-01T06:07:33.701Z,101067.81
2023-09-01T06:10:00.176Z,101073.91
2023-09-01T06:12:26.664Z,101061.47
2023-09-01T06:14:53.234Z,101072.63
2023-09-01T06:17:26.767Z,101071.78
2023-09-01T06:19:59.320Z,101068.81
2023-09-01T06:22:25.807Z,101069.69
2023-09-01T06:24:52.324Z,101077.03
2023-09-01T06:27:18.807Z,101079.59
2023-09-01T06:29:45.275Z,101081.69
2023-09-01T06:32:13.010Z,101084.63
2023-09-01T06:34:39.611Z,101093.69
2023-09-01T06:37:06.391Z,101094.53
2023-09-01T06:39:32.940Z,101097.91
2023-09-01T06:41:59.544Z,101102.34
2023-09-01T06:44:26.172Z,101098.56
2023-09-01T06:46:52.683Z,101094.13
2023-09-01T06:49:19.185Z,101102.34
2023-09-01T06:51:45.693Z,101094.75
2023-09-01T06:54:12.101Z,101104.88
2023-09-01T06:56:38.597Z,101106.56
2023-09-01T06:59:05.135Z,101101.94
2023-09-01T07:01:31.688Z,101097.31
2023-09-01T07:03:58.215Z,101100.50
2023-09-01T07:06:24.728Z,101106.38
2023-09-01T07:08:51.243Z,101103.66
2023-09-01T07:11:20.915Z,101096.50
2023-09-01T07:13:48.228Z,101102.19
2023-09-01T07:16:15.044Z,101105.97
2023-09-01T07:18:41.643Z,101101.53
2023-09-01T07:21:08.145Z,101102.56
2023-09-01T07:23:34.682Z,101110.59
2023-09-01T07:26:01.287Z,101112.47
2023-09-01T07:28:28.174Z,101111.63
2023-09-01T07:30:54.997Z,101117.13
2023-09-01T07:33:21.538Z,101128.06
2023-09-01T07:35:48.964Z,101121.75
2023-09-01T07:38:16.606Z,101118.16
2023-09-01T07:40:44.369Z,101123.66
2023-09-01T07:43:10.862Z,101118.38
2023-09-01T07:45:37.795Z,101124.69
2023-09-01T07:48:21.764Z,101131.19
2023-09-01T07:50:49.651Z,101131.19
2023-09-01T07:53:16.620Z,101127.63
2023-09-01T07:55:43.168Z,101133.94
2023-09-01T07:58:09.929Z,101134.81
2023-09-01T08:00:38.933Z,101136.69
2023-09-01T08:03:07.309Z,101137.56
2023-09-01T08:05:33.950Z,101141.97
2023-09-01T08:08:00.605Z,101140.91
2023-09-01T08:10:27.149Z,101146.63
2023-09-01T08:12:53.684Z,101136.69
2023-09-01T08:15:20.270Z,101139.41
2023-09-01T08:17:46.896Z,101138.41
2023-09-01T08:20:14.712Z,101137.56
2023-09-01T08:22:41.665Z,101144.72
2023-09-01T08:25:08.797Z,101143.88
2023-09-01T08:27:35.760Z,101146.41
2023-09-01T08:30:02.448Z,101150.19
2023-09-01T08:32:29.136Z,101152.94
2023-09-01T08:34:55.947Z,101140.91
2023-09-01T08:37:22.750Z,101151.88
2023-09-01T08:39:49.294Z,101150.81
2023-09-01T08:42:17.898Z,101151.88
2023-09-01T08:44:44.513Z,101148.09
2023-09-01T08:47:11.768Z,101147.25
2023-09-01T08:49:38.442Z,101155.47
2023-09-01T08:52:05.686Z,101152.72
2023-09-01T08:54:32.528Z,101148.94
2023-09-01T08:56:59.263Z,101159.03
2023-09-01T08:59:29.362Z,101158.19
2023-09-01T09:01:56.480Z,101160.09
2023-09-01T09:04:23.382Z,101171.91
2023-09-01T09:06:49.990Z,101160.09
2023-09-01T09:09:16.883Z,101165.56
2023-09-01T09:11:57.145Z,101170.22
2023-09-01T09:14:24.342Z,101174.00
2023-09-01T09:16:51.939Z,101172.09
2023-09-01T09:19:20.488Z,101180.31
2023-09-01T09:21:47.258Z,101181.38
2023-09-01T09:24:22.919Z,101180.31
2023-09-01T09:26:56.839Z,101174.00
2023-09-01T09:29:23.382Z,101167.47
2023-09-01T09:31:49.967Z,101172.94
2023-09-01T09:34:16.831Z,101164.50
2023-09-01T09:36:43.887Z,101173.78
2023-09-01T09:39:23.638Z,101172.72
2023-09-01T09:41:50.517Z,101173.78
2023-09-01T09:44:24.459Z,101167.47
2023-09-01T09:46:51.111Z,101163.69
2023-09-01T09:49:18.346Z,101166.22
2023-09-01T09:51:46.210Z,101161.78
2023-09-01T09:54:14.701Z,101160.75
2023-09-01T09:56:42.484Z,101160.75
2023-09-01T09:59:11.915Z,101166.41
2023-09-01T10:01:40.924Z,101168.09
2023-09-01T10:04:08.708Z,101165.34
2023-09-01T10:06:35.767Z,101164.50
2023-09-01T10:09:04.359Z,101168.09
2023-09-01T10:11:31.483Z,101167.25
2023-09-01T10:13:58.418Z,101164.50
2023-09-01T10:16:25.218Z,101171.72
2023-09-01T10:18:53.730Z,101165.56
2023-09-01T10:21:21.814Z,101168.09
2023-09-01T10:23:49.132Z,101165.34
2023-09-01T10:26:18.859Z,101166.41
2023-09-01T10:28:55.770Z,101164.50
2023-09-01T10:31:22.503Z,101157.16
2023-09-01T10:33:49.111Z,101169.16
2023-09-01T10:36:15.946Z,101170.84
2023-09-01T10:38:42.538Z,101170.84
2023-09-01T10:41:09.384Z,101166.22
2023-09-01T10:43:39.102Z,101166.03
2023-09-01T10:46:15.690Z,101156.13
2023-09-01T10:48:48.756Z,101157.81
2023-09-01T10:51:15.860Z,101158.00
2023-09-01T10:53:42.325Z,101164.13
2023-09-01T10:56:09.977Z,101150.66
2023-09-01T10:58:40.365Z,101165.19
2023-09-01T11:01:25.927Z,101166.03
2023-09-01T11:03:52.463Z,101168.75
2023-09-01T11:06:19.019Z,101169.59
2023-09-01T11:08:59.251Z,101175.91
2023-09-01T11:11:26.486Z,101170.44
2023-09-01T11:13:55.488Z,101169.59
2023-09-01T11:16:22.339Z,101160.53
2023-09-01T11:18:59.448Z,101167.91
2023-09-01T11:21:26.355Z,101163.28
2023-09-01T11:24:02.391Z,101170.66
2023-09-01T11:26:30.151Z,101178.03
2023-09-01T11:28:57.107Z,101170.84
2023-09-01T11:31:23.790Z,101178.88
2023-09-01T11:33:54.414Z,101169.81
2023-09-01T11:36:21.461Z,101169.81
2023-09-01T11:38:48.451Z,101168.09
2023-09-01T11:41:17.021Z,101179.06
2023-09-01T11:43:43.826Z,101182.66
2023-09-01T11:46:13.212Z,101193.63
2023-09-01T11:48:39.823Z,101194.47
2023-09-01T11:51:07.010Z,101187.28
2023-09-01T11:53:34.246Z,101185.59
2023-09-01T11:56:04.659Z,101189.16
2023-09-01T11:58:34.193Z,101188.31
2023-09-01T12:01:10.517Z,101196.53
2023-09-01T12:03:39.154Z,101188.53
2023-09-01T12:06:32.282Z,101184.13
2023-09-01T12:09:18.026Z,101182.22
2023-09-01T12:11:59.172Z,101194.00
2023-09-01T12:14:30.498Z,101199.66
2023-09-01T12:16:57.278Z,101196.09
2023-09-01T12:19:24.818Z,101193.34
2023-09-01T12:21:51.984Z,101187.03
2023-09-01T12:24:18.726Z,101189.97
2023-09-01T12:26:45.530Z,101199.66
2023-09-01T12:29:12.093Z,101204.31
2023-09-01T12:31:38.782Z,101208.94
2023-09-01T12:34:05.656Z,101200.53
2023-09-01T12:36:32.506Z,101209.78
2023-09-01T12:38:59.011Z,101211.69
2023-09-01T12:41:25.529Z,101208.94
2023-09-01T12:43:51.990Z,101213.38
2023-09-01T12:46:18.505Z,101211.69
2023-09-01T12:48:45.329Z,101213.56
2023-09-01T12:51:13.321Z,101209.78
2023-09-01T12:53:40.399Z,101213.56
2023-09-01T12:56:12.474Z,101204.53
2023-09-01T12:58:39.433Z,101217.38
2023-09-01T13:01:07.186Z,101218.22
2023-09-01T13:03:34.236Z,101215.47
2023-09-01T13:06:11.371Z,101216.31
2023-09-01T13:08:38.416Z,101214.63
2023-09-01T13:11:10.197Z,101225.59
2023-09-01T13:13:40.444Z,101226.44
2023-09-01T13:16:07.616Z,101222.00
2023-09-01T13:18:34.421Z,101222.00
2023-09-01T13:21:00.905Z,101223.69
2023-09-01T13:23:29.756Z,101219.28
2023-09-01T13:25:56.336Z,101223.91
2023-09-01T13:28:23.173Z,101225.78
2023-09-01T13:30:49.970Z,101219.28
2023-09-01T13:33:17.499Z,101212.09
2023-09-01T13:35:44.953Z,101221.16
2023-09-01T13:38:11.476Z,101215.69
2023-09-01T13:40:38.725Z,101213.13
2023-09-01T13:43:05.384Z,101213.13
2023-09-01T13:45:31.933Z,101218.59
2023-09-01T13:47:58.422Z,101223.22
2023-09-01T13:50:24.971Z,101224.06
2023-09-01T13:52:52.528Z,101218.59
2023-09-01T13:55:19.031Z,101210.38
2023-09-01T13:57:47.220Z,101218.59
2023-09-01T14:00:14.216Z,101215.03
2023-09-01T14:02:40.801Z,101217.75
2023-09-01T14:05:07.579Z,101227.03
2023-09-01T14:07:34.111Z,101221.34
2023-09-01T14:10:00.750Z,101209.38
2023-09-01T14:12:27.521Z,101209.53
2023-09-01T14:14:54.016Z,101208.69
2023-09-01T14:17:20.641Z,101215.03
2023-09-01T14:19:47.165Z,101210.38
2023-09-01T14:22:13.723Z,101216.72
2023-09-01T14:24:40.252Z,101209.53
2023-09-01T14:27:06.910Z,101213.34
2023-09-01T14:29:36.728Z,101214.19
2023-09-01T14:32:03.421Z,101215.88
2023-09-01T14:34:30.054Z,101209.53
2023-09-01T14:36:57.902Z,101208.50
2023-09-01T14:39:24.440Z,101201.31
2023-09-01T14:41:50.953Z,101204.91
2023-09-01T14:44:17.504Z,101199.44
2023-09-01T14:46:44.089Z,101202.38
2023-09-01T14:49:10.645Z,101205.97
2023-09-01T14:51:37.220Z,101208.69
2023-09-01T14:54:03.768Z,101205.13
2023-09-01T14:56:30.595Z,101205.97
2023-09-01T14:58:57.436Z,101205.13
2023-09-01T15:01:24.487Z,101213.34
2023-09-01T15:03:51.209Z,101205.97
2023-09-01T15:06:18.042Z,101208.69
2023-09-01T15:08:44.610Z,101206.81
2023-09-01T15:11:11.098Z,101206.81
2023-09-01T15:13:37.637Z,101215.88
2023-09-01T15:16:04.548Z,101217.75
2023-09-01T15:18:31.385Z,101213.34
2023-09-01T15:21:04.058Z,101214.19
2023-09-01T15:23:30.745Z,101217.59
2023-09-01T15:25:57.553Z,101218.59
2023-09-01T15:28:24.214Z,101211.22
2023-09-01T15:30:50.696Z,101210.38
2023-09-01T15:33:17.396Z,101209.38
2023-09-01T15:35:44.193Z,101213.78
2023-09-01T15:38:10.703Z,101214.84
2023-09-01T15:40:37.315Z,101212.09
2023-09-01T15:43:04.382Z,101212.09
2023-09-01T15:45:30.992Z,101212.09
2023-09-01T15:47:57.808Z,101202.84
2023-09-01T15:50:35.409Z,101208.31
2023-09-01T15:53:10.684Z,101211.91
2023-09-01T15:55:39.146Z,101211.06
2023-09-01T15:58:06.607Z,101210.00
2023-09-01T16:00:35.199Z,101220.09
2023-09-01T16:03:01.861Z,101219.91
2023-09-01T16:05:29.666Z,101222.63
2023-09-01T16:07:56.444Z,101227.28
2023-09-01T16:10:22.966Z,101230.84
2023-09-01T16:12:49.403Z,101228.97
2023-09-01T16:15:15.883Z,101231.50
2023-09-01T16:17:42.415Z,101228.78
2023-09-01T16:20:09.330Z,101230.66
2023-09-01T16:22:36.071Z,101231.50
2023-09-01T16:25:02.715Z,101216.97
2023-09-01T16:27:29.353Z,101224.13
2023-09-01T16:29:55.984Z,101230.47
2023-09-01T16:32:22.825Z,101230.47
2023-09-01T16:34:49.450Z,101230.47
2023-09-01T16:37:16.235Z,101223.31
2023-09-01T16:39:42.738Z,101226.88
2023-09-01T16:42:09.538Z,101227.50
2023-09-01T16:44:37.864Z,101223.31
2023-09-01T16:47:04.517Z,101224.78
2023-09-01T16:49:32.344Z,101227.50
2023-09-01T16:51:58.887Z,101231.31
2023-09-01T16:54:25.395Z,101225.81
2023-09-01T16:56:52.205Z,101232.16
2023-09-01T16:59:18.761Z,101231.31
2023-09-01T17:01:45.459Z,101236.78
2023-09-01T17:04:12.032Z,101238.88
2023-09-01T17:06:38.589Z,101236.16
2023-09-01T17:09:05.402Z,101237.00
2023-09-01T17:11:31.900Z,101243.31
2023-09-01T17:13:58.407Z,101237.00
2023-09-01T17:16:24.884Z,101244.16
2023-09-01T17:18:51.350Z,101238.69
2023-09-01T17:21:17.937Z,101247.75
2023-09-01T17:23:44.743Z,101246.91
2023-09-01T17:26:11.221Z,101249.63
2023-09-01T17:28:38.471Z,101244.16
2023-09-01T17:31:05.128Z,101250.69
2023-09-01T17:33:32.269Z,101252.59
2023-09-01T17:35:58.958Z,101255.31
2023-09-01T17:38:25.462Z,101258.91
2023-09-01T17:40:52.844Z,101251.53
2023-09-01T17:43:19.534Z,101252.59
2023-09-01T17:45:46.384Z,101259.75
2023-09-01T17:48:12.889Z,101259.94
2023-09-01T17:50:40.693Z,101256.16
2023-09-01T17:53:07.216Z,101259.94
2023-09-01T17:55:33.711Z,101263.53
2023-09-01T17:58:00.279Z,101266.28
2023-09-01T18:00:26.790Z,101262.66
2023-09-01T18:02:56.320Z,101276.34
2023-09-01T18:05:23.005Z,101275.50
2023-09-01T18:37:01.991Z,101296.78
2023-09-01T18:43:14.416Z,101313.44
2023-09-01T18:45:43.543Z,101313.44
2023-09-01T18:48:25.925Z,101317.00
2023-09-01T18:51:41.430Z,101307.09
2023-09-01T18:54:45.529Z,101318.72
2023-09-01T18:57:15.484Z,101318.03
2023-09-01T18:59:42.226Z,101316.16
2023-09-01T19:02:29.051Z,101321.66
2023-09-01T19:04:56.034Z,101319.94
2023-09-01T19:07:22.597Z,101320.78
2023-09-01T19:09:49.029Z,101325.41
2023-09-01T19:12:16.720Z,101324.56
2023-09-01T19:14:43.154Z,101330.88
2023-09-01T19:17:09.978Z,101327.31
2023-09-01T19:19:36.862Z,101323.72
2023-09-01T19:22:03.531Z,101333.84
2023-09-01T19:24:31.630Z,101328.34
2023-09-01T19:26:59.196Z,101325.81
2023-09-01T19:29:26.190Z,101333.84
2023-09-01T19:31:52.789Z,101337.63
2023-09-01T19:34:20.499Z,101330.25
2023-09-01T19:36:49.723Z,101333.00
2023-09-01T19:39:19.583Z,101342.91
2023-09-01T19:41:46.094Z,101339.31
2023-09-01T19:44:12.796Z,101338.47
2023-09-01T19:46:39.640Z,101338.63
2023-09-01T19:49:10.120Z,101341.38
2023-09-01T19:51:40.363Z,101348.56
2023-09-01T19:54:07.207Z,101345.16
2023-09-01T19:56:34.582Z,101355.06
2023-09-01T19:59:02.323Z,101355.06
2023-09-01T20:01:32.532Z,101358.88
2023-09-01T20:03:59.596Z,101365.19
2023-09-01T20:06:27.342Z,101362.66
2023-09-01T20:08:54.509Z,101365.19
2023-09-01T20:11:22.338Z,101365.19
2023-09-01T20:13:50.037Z,101367.75
2023-09-01T20:16:17.357Z,101363.13
2023-09-01T20:18:43.978Z,101372.38
2023-09-01T20:21:10.688Z,101370.66
2023-09-01T20:23:37.143Z,101365.38
2023-09-01T20:26:03.568Z,101373.59
2023-09-01T20:28:29.986Z,101372.94
2023-09-01T20:30:56.547Z,101369.19
2023-09-01T20:33:23.042Z,101380.13
2023-09-01T20:35:49.472Z,101373.16
2023-09-01T20:38:16.037Z,101377.56
2023-09-01T20:40:42.576Z,101375.69
2023-09-01T20:43:09.387Z,101389.38
2023-09-01T20:45:41.947Z,101392.09
2023-09-01T20:48:08.947Z,101387.69
2023-09-01T20:50:36.046Z,101386.84
2023-09-01T20:53:02.586Z,101388.34
2023-09-01T20:55:29.099Z,101385.59
2023-09-01T20:57:55.647Z,101384.94
2023-09-01T21:00:24.697Z,101388.53
2023-09-01T21:02:51.239Z,101401.19
2023-09-01T21:05:20.844Z,101403.94
2023-09-01T21:07:49.635Z,101401.38
2023-09-01T21:10:16.261Z,101406.00
2023-09-01T21:12:42.854Z,101408.75
2023-09-01T21:15:10.341Z,101407.91
2023-09-01T21:17:37.054Z,101406.84
2023-09-01T21:20:04.677Z,101411.47
2023-09-01T21:22:31.165Z,101410.44
2023-09-01T21:24:57.620Z,101407.91
2023-09-01T21:27:25.196Z,101399.69
2023-09-01T21:29:52.458Z,101401.56
2023-09-01T21:32:22.020Z,101404.31
2023-09-01T21:34:54.357Z,101411.47
2023-09-01T21:37:21.805Z,101411.69
2023-09-01T21:39:49.106Z,101418.19
2023-09-01T21:42:15.627Z,101415.44
2023-09-01T21:44:42.121Z,101417.16
2023-09-01T21:47:08.908Z,101416.31
2023-09-01T21:49:35.354Z,101422.81
2023-09-01T21:52:02.142Z,101430.00
2023-09-01T21:54:28.628Z,101423.66
2023-09-01T21:56:55.067Z,101430.00
2023-09-01T21:59:21.526Z,101430.00
2023-09-01T22:01:48.070Z,101427.28
2023-09-01T22:04:14.553Z,101425.53
2023-09-01T22:06:41.038Z,101426.59
2023-09-01T22:09:07.730Z,101427.66
2023-09-01T22:11:34.518Z,101433.28
2023-09-01T22:14:01.056Z,101437.94
2023-09-01T22:16:28.489Z,101438.78
2023-09-01T22:18:55.652Z,101435.19
2023-09-01T22:21:23.043Z,101436.25
2023-09-01T22:23:50.240Z,101437.09
2023-09-01T22:26:16.892Z,101439.81
2023-09-01T22:28:43.436Z,101436.91
2023-09-01T22:31:10.042Z,101440.50
2023-09-01T22:33:36.510Z,101452.09
2023-09-01T22:36:03.000Z,101449.34
2023-09-01T22:38:30.607Z,101456.72
2023-09-01T22:41:00.867Z,101448.72
2023-09-01T22:43:27.785Z,101462.41
2023-09-01T22:45:55.752Z,101460.69
2023-09-01T22:48:22.792Z,101458.16
2023-09-01T22:50:49.247Z,101466.34
2023-09-01T22:53:16.008Z,101463.63
2023-09-01T22:55:42.956Z,101462.56
2023-09-01T22:58:09.618Z,101468.25
2023-09-01T23:00:36.161Z,101472.03
2023-09-01T23:03:02.823Z,101471.19
2023-09-01T23:05:29.328Z,101467.56
2023-09-01T23:07:59.303Z,101482.16
2023-09-01T23:10:25.851Z,101477.69
2023-09-01T23:12:52.355Z,101474.94
2023-09-01T23:15:18.938Z,101476.84
2023-09-01T23:17:45.579Z,101480.41
2023-09-01T23:20:12.149Z,101476.84
2023-09-01T23:22:38.712Z,101479.41
2023-09-01T23:25:05.370Z,101484.69
2023-09-01T23:27:31.862Z,101477.31
2023-09-01T23:29:58.310Z,101480.03
2023-09-01T23:32:26.783Z,101490.34
2023-09-01T23:34:53.858Z,101490.34
2023-09-01T23:37:20.313Z,101486.75
2023-09-01T23:39:46.789Z,101489.47
2023-09-01T23:42:13.422Z,101486.09
2023-09-01T23:44:39.962Z,101485.06
2023-09-01T23:47:06.517Z,101488.00
2023-09-01T23:49:33.077Z,101485.25
2023-09-01T23:51:59.511Z,101487.16
2023-09-01T23:54:26.010Z,101489.69
2023-09-01T23:56:52.561Z,101494.31
2023-09-01T23:59:19.756Z,101493.47
